sensor_id;sensor_type;location;lat;lon;timestamp;P1;durP1;ratioP1;P2;durP2;ratioP2
44606;SDS011;30315;46.072;14.474;2022-12-07T00:01:34;12.03;;;10.67;;
44606;SDS011;30315;46.072;14.474;2022-12-07T00:04:03;12.18;;;10.65;;
44606;SDS011;30315;46.072;14.474;2022-12-07T00:06:35;12.10;;;10.63;;
44606;SDS011;30315;46.072;14.474;2022-12-07T00:09:04;11.35;;;10.15;;
44606;SDS011;30315;46.072;14.474;2022-12-07T00:11:32;13.77;;;10.77;;
44606;SDS011;30315;46.072;14.474;2022-12-07T00:14:00;14.98;;;10.73;;
44606;SDS011;30315;46.072;14.474;2022-12-07T00:16:30;11.23;;;10.07;;
44606;SDS011;30315;46.072;14.474;2022-12-07T00:18:58;11.77;;;10.57;;
44606;SDS011;30315;46.072;14.474;2022-12-07T00:21:26;11.82;;;10.20;;
44606;SDS011;30315;46.072;14.474;2022-12-07T00:23:56;12.77;;;10.50;;
44606;SDS011;30315;46.072;14.474;2022-12-07T00:26:31;11.75;;;10.43;;
44606;SDS011;30315;46.072;14.474;2022-12-07T00:29:16;13.40;;;10.95;;
44606;SDS011;30315;46.072;14.474;2022-12-07T00:31:44;12.55;;;9.88;;
44606;SDS011;30315;46.072;14.474;2022-12-07T00:34:14;12.32;;;10.40;;
44606;SDS011;30315;46.072;14.474;2022-12-07T00:39:09;10.85;;;9.73;;
44606;SDS011;30315;46.072;14.474;2022-12-07T00:41:36;10.18;;;9.10;;
44606;SDS011;30315;46.072;14.474;2022-12-07T00:44:04;10.48;;;9.32;;
44606;SDS011;30315;46.072;14.474;2022-12-07T00:46:31;10.45;;;9.45;;
44606;SDS011;30315;46.072;14.474;2022-12-07T00:48:59;10.48;;;9.23;;
44606;SDS011;30315;46.072;14.474;2022-12-07T00:51:25;9.82;;;8.80;;
44606;SDS011;30315;46.072;14.474;2022-12-07T00:53:52;9.73;;;8.88;;
44606;SDS011;30315;46.072;14.474;2022-12-07T00:56:24;12.65;;;9.40;;
44606;SDS011;30315;46.072;14.474;2022-12-07T00:58:56;7.70;;;6.95;;
44606;SDS011;30315;46.072;14.474;2022-12-07T01:01:26;8.73;;;7.93;;
44606;SDS011;30315;46.072;14.474;2022-12-07T01:03:56;7.95;;;7.25;;
44606;SDS011;30315;46.072;14.474;2022-12-07T01:06:24;7.10;;;6.50;;
44606;SDS011;30315;46.072;14.474;2022-12-07T01:08:52;7.67;;;6.90;;
44606;SDS011;30315;46.072;14.474;2022-12-07T01:11:21;7.28;;;6.65;;
44606;SDS011;30315;46.072;14.474;2022-12-07T01:13:51;7.63;;;5.78;;
44606;SDS011;30315;46.072;14.474;2022-12-07T01:16:19;6.33;;;5.83;;
44606;SDS011;30315;46.072;14.474;2022-12-07T01:18:51;6.63;;;6.00;;
44606;SDS011;30315;46.072;14.474;2022-12-07T01:21:20;6.15;;;5.72;;
44606;SDS011;30315;46.072;14.474;2022-12-07T01:23:49;6.25;;;5.75;;
44606;SDS011;30315;46.072;14.474;2022-12-07T01:26:18;6.20;;;5.63;;
44606;SDS011;30315;46.072;14.474;2022-12-07T01:28:47;6.65;;;6.05;;
44606;SDS011;30315;46.072;14.474;2022-12-07T01:31:16;5.30;;;4.90;;
44606;SDS011;30315;46.072;14.474;2022-12-07T01:33:46;5.88;;;5.25;;
44606;SDS011;30315;46.072;14.474;2022-12-07T01:36:19;5.38;;;4.88;;
44606;SDS011;30315;46.072;14.474;2022-12-07T01:38:47;4.78;;;4.47;;
44606;SDS011;30315;46.072;14.474;2022-12-07T01:41:20;4.95;;;4.55;;
44606;SDS011;30315;46.072;14.474;2022-12-07T01:46:34;4.40;;;4.07;;
44606;SDS011;30315;46.072;14.474;2022-12-07T01:49:01;4.60;;;4.30;;
44606;SDS011;30315;46.072;14.474;2022-12-07T01:51:32;4.90;;;4.50;;
44606;SDS011;30315;46.072;14.474;2022-12-07T01:53:59;4.50;;;4.20;;
44606;SDS011;30315;46.072;14.474;2022-12-07T01:56:27;4.20;;;3.90;;
44606;SDS011;30315;46.072;14.474;2022-12-07T01:58:55;4.55;;;4.15;;
44606;SDS011;30315;46.072;14.474;2022-12-07T02:01:26;4.55;;;4.25;;
44606;SDS011;30315;46.072;14.474;2022-12-07T02:03:53;4.22;;;3.95;;
44606;SDS011;30315;46.072;14.474;2022-12-07T02:06:20;4.40;;;4.13;;
44606;SDS011;30315;46.072;14.474;2022-12-07T02:08:51;5.35;;;4.85;;
44606;SDS011;30315;46.072;14.474;2022-12-07T02:11:19;4.65;;;4.35;;
44606;SDS011;30315;46.072;14.474;2022-12-07T02:13:47;4.45;;;4.07;;
44606;SDS011;30315;46.072;14.474;2022-12-07T02:27:45;4.50;;;4.20;;
44606;SDS011;30315;46.072;14.474;2022-12-07T02:30:14;3.80;;;3.50;;
44606;SDS011;30315;46.072;14.474;2022-12-07T02:32:46;4.85;;;4.55;;
44606;SDS011;30315;46.072;14.474;2022-12-07T02:35:22;4.32;;;4.03;;
44606;SDS011;30315;46.072;14.474;2022-12-07T02:41:10;4.45;;;4.15;;
44606;SDS011;30315;46.072;14.474;2022-12-07T02:43:58;4.30;;;4.00;;
44606;SDS011;30315;46.072;14.474;2022-12-07T02:46:37;4.35;;;4.05;;
44606;SDS011;30315;46.072;14.474;2022-12-07T02:49:10;4.50;;;4.20;;
44606;SDS011;30315;46.072;14.474;2022-12-07T02:51:41;3.72;;;3.53;;
44606;SDS011;30315;46.072;14.474;2022-12-07T02:54:11;3.90;;;3.60;;
44606;SDS011;30315;46.072;14.474;2022-12-07T02:59:49;5.15;;;4.20;;
44606;SDS011;30315;46.072;14.474;2022-12-07T03:05:15;4.03;;;3.72;;
44606;SDS011;30315;46.072;14.474;2022-12-07T03:13:32;3.90;;;3.70;;
44606;SDS011;30315;46.072;14.474;2022-12-07T03:16:23;3.58;;;3.38;;
44606;SDS011;30315;46.072;14.474;2022-12-07T03:18:56;3.97;;;3.67;;
44606;SDS011;30315;46.072;14.474;2022-12-07T03:21:27;3.47;;;3.28;;
44606;SDS011;30315;46.072;14.474;2022-12-07T03:24:21;3.63;;;3.42;;
44606;SDS011;30315;46.072;14.474;2022-12-07T03:27:39;4.03;;;3.72;;
44606;SDS011;30315;46.072;14.474;2022-12-07T03:29:52;4.40;;;3.90;;
44606;SDS011;30315;46.072;14.474;2022-12-07T03:35:11;3.25;;;2.95;;
44606;SDS011;30315;46.072;14.474;2022-12-07T03:40:45;3.42;;;3.22;;
44606;SDS011;30315;46.072;14.474;2022-12-07T03:43:17;3.45;;;3.25;;
44606;SDS011;30315;46.072;14.474;2022-12-07T03:45:53;3.33;;;3.13;;
44606;SDS011;30315;46.072;14.474;2022-12-07T03:54:12;3.20;;;3.00;;
44606;SDS011;30315;46.072;14.474;2022-12-07T03:57:06;3.08;;;2.88;;
44606;SDS011;30315;46.072;14.474;2022-12-07T03:59:36;3.22;;;3.03;;
44606;SDS011;30315;46.072;14.474;2022-12-07T04:02:05;3.30;;;3.17;;
44606;SDS011;30315;46.072;14.474;2022-12-07T04:04:33;3.55;;;3.35;;
44606;SDS011;30315;46.072;14.474;2022-12-07T04:07:01;3.20;;;2.95;;
44606;SDS011;30315;46.072;14.474;2022-12-07T04:09:28;3.22;;;3.03;;
44606;SDS011;30315;46.072;14.474;2022-12-07T04:11:55;3.30;;;3.10;;
44606;SDS011;30315;46.072;14.474;2022-12-07T04:14:22;3.15;;;2.95;;
44606;SDS011;30315;46.072;14.474;2022-12-07T04:16:50;3.50;;;3.30;;
44606;SDS011;30315;46.072;14.474;2022-12-07T04:19:19;3.50;;;3.30;;
44606;SDS011;30315;46.072;14.474;2022-12-07T04:21:48;2.92;;;2.80;;
44606;SDS011;30315;46.072;14.474;2022-12-07T04:24:17;3.05;;;2.90;;
44606;SDS011;30315;46.072;14.474;2022-12-07T04:26:45;2.90;;;2.70;;
44606;SDS011;30315;46.072;14.474;2022-12-07T04:29:13;2.90;;;2.70;;
44606;SDS011;30315;46.072;14.474;2022-12-07T04:31:41;2.90;;;2.70;;
44606;SDS011;30315;46.072;14.474;2022-12-07T04:34:08;3.10;;;2.90;;
44606;SDS011;30315;46.072;14.474;2022-12-07T04:36:36;2.83;;;2.72;;
44606;SDS011;30315;46.072;14.474;2022-12-07T04:39:05;3.28;;;3.05;;
44606;SDS011;30315;46.072;14.474;2022-12-07T04:41:33;2.90;;;2.80;;
44606;SDS011;30315;46.072;14.474;2022-12-07T04:44:01;3.40;;;3.20;;
44606;SDS011;30315;46.072;14.474;2022-12-07T04:46:31;3.15;;;2.95;;
44606;SDS011;30315;46.072;14.474;2022-12-07T04:48:58;3.08;;;2.88;;
44606;SDS011;30315;46.072;14.474;2022-12-07T04:51:26;2.80;;;2.70;;
44606;SDS011;30315;46.072;14.474;2022-12-07T04:53:55;2.65;;;2.55;;
44606;SDS011;30315;46.072;14.474;2022-12-07T04:56:23;2.90;;;2.70;;
44606;SDS011;30315;46.072;14.474;2022-12-07T04:58:51;3.03;;;2.83;;
44606;SDS011;30315;46.072;14.474;2022-12-07T05:01:20;2.57;;;2.43;;
44606;SDS011;30315;46.072;14.474;2022-12-07T05:03:47;3.00;;;2.75;;
44606;SDS011;30315;46.072;14.474;2022-12-07T05:06:15;2.70;;;2.60;;
44606;SDS011;30315;46.072;14.474;2022-12-07T05:08:42;2.80;;;2.60;;
44606;SDS011;30315;46.072;14.474;2022-12-07T05:11:09;2.92;;;2.83;;
44606;SDS011;30315;46.072;14.474;2022-12-07T05:13:59;2.90;;;2.70;;
44606;SDS011;30315;46.072;14.474;2022-12-07T05:17:05;2.75;;;2.55;;
44606;SDS011;30315;46.072;14.474;2022-12-07T05:19:32;2.60;;;2.40;;
44606;SDS011;30315;46.072;14.474;2022-12-07T05:21:58;3.08;;;2.95;;
44606;SDS011;30315;46.072;14.474;2022-12-07T05:24:26;3.17;;;2.97;;
44606;SDS011;30315;46.072;14.474;2022-12-07T05:26:53;3.17;;;2.97;;
44606;SDS011;30315;46.072;14.474;2022-12-07T05:29:21;4.28;;;3.20;;
44606;SDS011;30315;46.072;14.474;2022-12-07T05:31:48;3.25;;;3.05;;
44606;SDS011;30315;46.072;14.474;2022-12-07T05:34:15;3.22;;;3.03;;
44606;SDS011;30315;46.072;14.474;2022-12-07T05:36:42;3.05;;;2.80;;
44606;SDS011;30315;46.072;14.474;2022-12-07T05:39:09;6.13;;;2.83;;
44606;SDS011;30315;46.072;14.474;2022-12-07T05:41:37;3.58;;;2.67;;
44606;SDS011;30315;46.072;14.474;2022-12-07T05:44:36;3.20;;;2.90;;
44606;SDS011;30315;46.072;14.474;2022-12-07T05:47:03;2.90;;;2.80;;
44606;SDS011;30315;46.072;14.474;2022-12-07T05:49:30;3.38;;;3.05;;
44606;SDS011;30315;46.072;14.474;2022-12-07T05:51:57;3.28;;;2.70;;
44606;SDS011;30315;46.072;14.474;2022-12-07T05:54:24;2.85;;;2.75;;
44606;SDS011;30315;46.072;14.474;2022-12-07T05:56:51;3.00;;;2.80;;
44606;SDS011;30315;46.072;14.474;2022-12-07T05:59:18;3.03;;;2.83;;
44606;SDS011;30315;46.072;14.474;2022-12-07T06:04:25;3.45;;;3.25;;
44606;SDS011;30315;46.072;14.474;2022-12-07T06:06:54;3.28;;;3.08;;
44606;SDS011;30315;46.072;14.474;2022-12-07T06:09:22;3.92;;;3.28;;
44606;SDS011;30315;46.072;14.474;2022-12-07T06:11:50;3.70;;;3.40;;
44606;SDS011;30315;46.072;14.474;2022-12-07T06:14:38;3.60;;;3.30;;
44606;SDS011;30315;46.072;14.474;2022-12-07T06:17:08;4.00;;;3.47;;
44606;SDS011;30315;46.072;14.474;2022-12-07T06:19:35;3.53;;;3.22;;
44606;SDS011;30315;46.072;14.474;2022-12-07T06:22:03;3.47;;;3.28;;
44606;SDS011;30315;46.072;14.474;2022-12-07T06:24:34;3.33;;;3.13;;
44606;SDS011;30315;46.072;14.474;2022-12-07T06:27:03;3.65;;;3.45;;
44606;SDS011;30315;46.072;14.474;2022-12-07T06:29:30;3.75;;;3.55;;
44606;SDS011;30315;46.072;14.474;2022-12-07T06:31:57;3.10;;;2.90;;
44606;SDS011;30315;46.072;14.474;2022-12-07T06:34:25;3.60;;;3.33;;
44606;SDS011;30315;46.072;14.474;2022-12-07T06:36:53;3.00;;;2.80;;
44606;SDS011;30315;46.072;14.474;2022-12-07T06:39:22;3.22;;;3.03;;
44606;SDS011;30315;46.072;14.474;2022-12-07T06:41:51;3.78;;;3.47;;
44606;SDS011;30315;46.072;14.474;2022-12-07T06:44:18;3.90;;;3.60;;
44606;SDS011;30315;46.072;14.474;2022-12-07T06:46:46;3.75;;;3.55;;
44606;SDS011;30315;46.072;14.474;2022-12-07T06:49:13;3.75;;;3.45;;
44606;SDS011;30315;46.072;14.474;2022-12-07T06:51:40;3.20;;;2.90;;
44606;SDS011;30315;46.072;14.474;2022-12-07T06:54:08;3.40;;;3.20;;
44606;SDS011;30315;46.072;14.474;2022-12-07T06:56:39;4.00;;;3.80;;
44606;SDS011;30315;46.072;14.474;2022-12-07T06:59:07;4.00;;;3.65;;
44606;SDS011;30315;46.072;14.474;2022-12-07T07:01:34;3.67;;;3.47;;
44606;SDS011;30315;46.072;14.474;2022-12-07T07:04:02;4.15;;;3.85;;
44606;SDS011;30315;46.072;14.474;2022-12-07T07:06:30;5.60;;;4.95;;
44606;SDS011;30315;46.072;14.474;2022-12-07T07:08:57;4.10;;;3.80;;
44606;SDS011;30315;46.072;14.474;2022-12-07T07:11:24;4.40;;;4.03;;
44606;SDS011;30315;46.072;14.474;2022-12-07T07:13:51;3.97;;;3.78;;
44606;SDS011;30315;46.072;14.474;2022-12-07T07:16:18;4.78;;;4.43;;
44606;SDS011;30315;46.072;14.474;2022-12-07T07:18:45;5.13;;;3.95;;
44606;SDS011;30315;46.072;14.474;2022-12-07T07:21:12;4.38;;;4.05;;
44606;SDS011;30315;46.072;14.474;2022-12-07T07:23:39;4.03;;;3.65;;
44606;SDS011;30315;46.072;14.474;2022-12-07T07:26:06;4.28;;;3.90;;
44606;SDS011;30315;46.072;14.474;2022-12-07T07:28:33;6.05;;;4.60;;
44606;SDS011;30315;46.072;14.474;2022-12-07T07:31:00;5.50;;;5.00;;
44606;SDS011;30315;46.072;14.474;2022-12-07T07:33:27;8.23;;;5.20;;
44606;SDS011;30315;46.072;14.474;2022-12-07T07:35:54;4.53;;;4.13;;
44606;SDS011;30315;46.072;14.474;2022-12-07T07:38:21;5.22;;;4.30;;
44606;SDS011;30315;46.072;14.474;2022-12-07T07:40:48;3.80;;;3.60;;
44606;SDS011;30315;46.072;14.474;2022-12-07T07:43:15;4.15;;;3.75;;
44606;SDS011;30315;46.072;14.474;2022-12-07T07:45:42;4.63;;;4.22;;
44606;SDS011;30315;46.072;14.474;2022-12-07T07:48:10;4.47;;;4.18;;
44606;SDS011;30315;46.072;14.474;2022-12-07T07:50:37;4.32;;;3.95;;
44606;SDS011;30315;46.072;14.474;2022-12-07T07:53:04;4.60;;;4.22;;
44606;SDS011;30315;46.072;14.474;2022-12-07T07:55:31;4.65;;;4.32;;
44606;SDS011;30315;46.072;14.474;2022-12-07T07:57:58;4.40;;;4.10;;
44606;SDS011;30315;46.072;14.474;2022-12-07T08:00:25;4.45;;;4.10;;
44606;SDS011;30315;46.072;14.474;2022-12-07T08:02:52;4.65;;;4.25;;
44606;SDS011;30315;46.072;14.474;2022-12-07T08:05:19;3.90;;;3.70;;
44606;SDS011;30315;46.072;14.474;2022-12-07T08:07:46;4.30;;;3.90;;
44606;SDS011;30315;46.072;14.474;2022-12-07T08:10:13;4.18;;;3.83;;
44606;SDS011;30315;46.072;14.474;2022-12-07T08:12:41;4.88;;;4.43;;
44606;SDS011;30315;46.072;14.474;2022-12-07T08:15:29;4.03;;;3.65;;
44606;SDS011;30315;46.072;14.474;2022-12-07T08:17:57;3.63;;;3.42;;
44606;SDS011;30315;46.072;14.474;2022-12-07T08:20:24;4.25;;;3.95;;
44606;SDS011;30315;46.072;14.474;2022-12-07T08:22:51;3.80;;;3.50;;
44606;SDS011;30315;46.072;14.474;2022-12-07T08:25:18;3.95;;;3.65;;
44606;SDS011;30315;46.072;14.474;2022-12-07T08:27:45;4.22;;;3.55;;
44606;SDS011;30315;46.072;14.474;2022-12-07T08:30:12;4.15;;;3.75;;
44606;SDS011;30315;46.072;14.474;2022-12-07T08:32:39;4.53;;;3.97;;
44606;SDS011;30315;46.072;14.474;2022-12-07T08:35:06;4.47;;;4.13;;
44606;SDS011;30315;46.072;14.474;2022-12-07T08:37:34;5.15;;;4.68;;
44606;SDS011;30315;46.072;14.474;2022-12-07T08:40:01;4.80;;;4.40;;
44606;SDS011;30315;46.072;14.474;2022-12-07T08:42:29;5.15;;;4.65;;
44606;SDS011;30315;46.072;14.474;2022-12-07T08:45:07;5.55;;;4.93;;
44606;SDS011;30315;46.072;14.474;2022-12-07T08:47:37;4.15;;;3.85;;
44606;SDS011;30315;46.072;14.474;2022-12-07T08:50:15;4.65;;;4.22;;
44606;SDS011;30315;46.072;14.474;2022-12-07T08:52:44;3.63;;;3.40;;
44606;SDS011;30315;46.072;14.474;2022-12-07T08:55:14;3.33;;;3.08;;
44606;SDS011;30315;46.072;14.474;2022-12-07T08:57:41;3.72;;;3.42;;
44606;SDS011;30315;46.072;14.474;2022-12-07T09:00:09;3.90;;;3.60;;
44606;SDS011;30315;46.072;14.474;2022-12-07T09:02:36;4.00;;;3.70;;
44606;SDS011;30315;46.072;14.474;2022-12-07T09:05:06;4.72;;;3.95;;
44606;SDS011;30315;46.072;14.474;2022-12-07T09:07:42;3.92;;;3.63;;
44606;SDS011;30315;46.072;14.474;2022-12-07T09:10:16;3.92;;;3.45;;
44606;SDS011;30315;46.072;14.474;2022-12-07T09:12:44;4.03;;;3.58;;
44606;SDS011;30315;46.072;14.474;2022-12-07T09:15:11;3.47;;;3.25;;
44606;SDS011;30315;46.072;14.474;2022-12-07T09:17:38;3.95;;;3.75;;
44606;SDS011;30315;46.072;14.474;2022-12-07T09:20:06;4.22;;;3.92;;
44606;SDS011;30315;46.072;14.474;2022-12-07T09:22:33;4.43;;;4.03;;
44606;SDS011;30315;46.072;14.474;2022-12-07T09:25:00;4.10;;;3.80;;
44606;SDS011;30315;46.072;14.474;2022-12-07T09:27:27;3.63;;;3.42;;
44606;SDS011;30315;46.072;14.474;2022-12-07T09:29:55;3.55;;;3.35;;
44606;SDS011;30315;46.072;14.474;2022-12-07T09:32:22;4.38;;;4.05;;
44606;SDS011;30315;46.072;14.474;2022-12-07T09:34:49;4.10;;;3.80;;
44606;SDS011;30315;46.072;14.474;2022-12-07T09:37:16;3.85;;;3.60;;
44606;SDS011;30315;46.072;14.474;2022-12-07T09:39:43;5.25;;;4.45;;
44606;SDS011;30315;46.072;14.474;2022-12-07T09:42:35;4.43;;;4.13;;
44606;SDS011;30315;46.072;14.474;2022-12-07T09:45:10;4.40;;;4.10;;
44606;SDS011;30315;46.072;14.474;2022-12-07T09:47:41;4.13;;;3.83;;
44606;SDS011;30315;46.072;14.474;2022-12-07T09:50:16;4.50;;;4.10;;
44606;SDS011;30315;46.072;14.474;2022-12-07T09:52:49;4.50;;;4.20;;
44606;SDS011;30315;46.072;14.474;2022-12-07T09:55:23;5.00;;;4.60;;
44606;SDS011;30315;46.072;14.474;2022-12-07T09:57:53;4.88;;;4.47;;
44606;SDS011;30315;46.072;14.474;2022-12-07T10:00:22;7.32;;;5.10;;
44606;SDS011;30315;46.072;14.474;2022-12-07T10:07:58;5.72;;;5.22;;
44606;SDS011;30315;46.072;14.474;2022-12-07T10:10:28;6.28;;;5.78;;
44606;SDS011;30315;46.072;14.474;2022-12-07T10:13:05;6.60;;;6.10;;
44606;SDS011;30315;46.072;14.474;2022-12-07T10:15:53;6.88;;;6.28;;
44606;SDS011;30315;46.072;14.474;2022-12-07T10:18:39;6.75;;;6.05;;
44606;SDS011;30315;46.072;14.474;2022-12-07T10:23:38;5.85;;;5.35;;
44606;SDS011;30315;46.072;14.474;2022-12-07T10:26:21;6.40;;;5.90;;
44606;SDS011;30315;46.072;14.474;2022-12-07T10:29:15;7.15;;;6.55;;
44606;SDS011;30315;46.072;14.474;2022-12-07T10:34:50;6.72;;;6.13;;
44606;SDS011;30315;46.072;14.474;2022-12-07T10:37:19;7.18;;;6.18;;
44606;SDS011;30315;46.072;14.474;2022-12-07T10:39:51;6.95;;;6.45;;
44606;SDS011;30315;46.072;14.474;2022-12-07T10:44:48;7.47;;;6.88;;
44606;SDS011;30315;46.072;14.474;2022-12-07T10:50:43;6.82;;;6.13;;
44606;SDS011;30315;46.072;14.474;2022-12-07T10:56:14;6.97;;;6.38;;
44606;SDS011;30315;46.072;14.474;2022-12-07T11:01:51;7.30;;;6.70;;
44606;SDS011;30315;46.072;14.474;2022-12-07T11:18:40;8.70;;;7.60;;
44606;SDS011;30315;46.072;14.474;2022-12-07T11:21:16;8.13;;;7.28;;
44606;SDS011;30315;46.072;14.474;2022-12-07T11:24:15;7.75;;;7.05;;
44606;SDS011;30315;46.072;14.474;2022-12-07T11:32:04;7.53;;;6.82;;
44606;SDS011;30315;46.072;14.474;2022-12-07T11:37:39;7.72;;;7.13;;
44606;SDS011;30315;46.072;14.474;2022-12-07T11:42:40;7.78;;;7.03;;
44606;SDS011;30315;46.072;14.474;2022-12-07T11:45:15;7.30;;;6.70;;
44606;SDS011;30315;46.072;14.474;2022-12-07T11:47:47;8.70;;;7.80;;
44606;SDS011;30315;46.072;14.474;2022-12-07T11:52:54;7.53;;;6.93;;
44606;SDS011;30315;46.072;14.474;2022-12-07T11:57:52;7.82;;;7.00;;
44606;SDS011;30315;46.072;14.474;2022-12-07T12:00:26;7.68;;;6.97;;
44606;SDS011;30315;46.072;14.474;2022-12-07T12:03:04;7.43;;;6.70;;
44606;SDS011;30315;46.072;14.474;2022-12-07T12:05:39;7.18;;;6.47;;
44606;SDS011;30315;46.072;14.474;2022-12-07T12:11:23;6.50;;;6.03;;
44606;SDS011;30315;46.072;14.474;2022-12-07T12:14:10;7.25;;;6.65;;
44606;SDS011;30315;46.072;14.474;2022-12-07T12:22:48;6.75;;;6.20;;
44606;SDS011;30315;46.072;14.474;2022-12-07T12:25:45;7.10;;;6.50;;
44606;SDS011;30315;46.072;14.474;2022-12-07T12:28:40;7.53;;;6.82;;
44606;SDS011;30315;46.072;14.474;2022-12-07T12:31:16;8.30;;;6.68;;
44606;SDS011;30315;46.072;14.474;2022-12-07T12:33:55;8.10;;;7.40;;
44606;SDS011;30315;46.072;14.474;2022-12-07T12:46:57;8.80;;;7.90;;
44606;SDS011;30315;46.072;14.474;2022-12-07T12:51:52;7.38;;;6.72;;
44606;SDS011;30315;46.072;14.474;2022-12-07T12:54:25;8.68;;;7.65;;
44606;SDS011;30315;46.072;14.474;2022-12-07T13:02:27;12.98;;;10.52;;
44606;SDS011;30315;46.072;14.474;2022-12-07T13:23:38;12.60;;;11.30;;
44606;SDS011;30315;46.072;14.474;2022-12-07T13:26:12;13.35;;;10.98;;
44606;SDS011;30315;46.072;14.474;2022-12-07T13:28:52;13.02;;;11.05;;
44606;SDS011;30315;46.072;14.474;2022-12-07T13:34:28;12.07;;;10.85;;
44606;SDS011;30315;46.072;14.474;2022-12-07T13:37:00;12.75;;;10.82;;
44606;SDS011;30315;46.072;14.474;2022-12-07T13:39:33;13.55;;;12.15;;
44606;SDS011;30315;46.072;14.474;2022-12-07T13:42:15;13.00;;;11.48;;
44606;SDS011;30315;46.072;14.474;2022-12-07T13:44:55;12.63;;;11.32;;
44606;SDS011;30315;46.072;14.474;2022-12-07T13:50:24;16.95;;;12.82;;
44606;SDS011;30315;46.072;14.474;2022-12-07T13:52:54;14.30;;;12.45;;
44606;SDS011;30315;46.072;14.474;2022-12-07T13:55:26;15.68;;;11.57;;
44606;SDS011;30315;46.072;14.474;2022-12-07T13:57:54;13.07;;;11.70;;
44606;SDS011;30315;46.072;14.474;2022-12-07T14:00:23;12.27;;;11.02;;
44606;SDS011;30315;46.072;14.474;2022-12-07T14:05:29;11.88;;;10.30;;
44606;SDS011;30315;46.072;14.474;2022-12-07T14:07:58;13.35;;;10.65;;
44606;SDS011;30315;46.072;14.474;2022-12-07T14:16:04;12.25;;;10.77;;
44606;SDS011;30315;46.072;14.474;2022-12-07T14:18:36;13.35;;;11.50;;
44606;SDS011;30315;46.072;14.474;2022-12-07T14:21:15;16.10;;;12.77;;
44606;SDS011;30315;46.072;14.474;2022-12-07T14:23:47;15.48;;;12.13;;
44606;SDS011;30315;46.072;14.474;2022-12-07T14:26:42;15.82;;;11.82;;
44606;SDS011;30315;46.072;14.474;2022-12-07T14:31:52;18.67;;;12.38;;
44606;SDS011;30315;46.072;14.474;2022-12-07T14:34:22;14.75;;;12.27;;
44606;SDS011;30315;46.072;14.474;2022-12-07T14:36:50;13.38;;;10.75;;
44606;SDS011;30315;46.072;14.474;2022-12-07T14:39:18;15.75;;;12.27;;
44606;SDS011;30315;46.072;14.474;2022-12-07T14:41:45;14.63;;;11.77;;
44606;SDS011;30315;46.072;14.474;2022-12-07T14:44:22;14.10;;;11.77;;
44606;SDS011;30315;46.072;14.474;2022-12-07T14:47:01;16.20;;;13.55;;
44606;SDS011;30315;46.072;14.474;2022-12-07T14:49:48;14.60;;;11.57;;
44606;SDS011;30315;46.072;14.474;2022-12-07T14:52:19;12.82;;;10.80;;
44606;SDS011;30315;46.072;14.474;2022-12-07T14:55:13;14.00;;;11.05;;
44606;SDS011;30315;46.072;14.474;2022-12-07T14:57:56;11.80;;;10.50;;
44606;SDS011;30315;46.072;14.474;2022-12-07T15:00:26;13.13;;;10.63;;
44606;SDS011;30315;46.072;14.474;2022-12-07T15:02:54;11.98;;;10.77;;
44606;SDS011;30315;46.072;14.474;2022-12-07T15:05:22;12.93;;;11.60;;
44606;SDS011;30315;46.072;14.474;2022-12-07T15:07:50;13.45;;;12.05;;
44606;SDS011;30315;46.072;14.474;2022-12-07T15:10:28;14.23;;;12.15;;
44606;SDS011;30315;46.072;14.474;2022-12-07T15:12:58;13.07;;;11.25;;
44606;SDS011;30315;46.072;14.474;2022-12-07T15:15:47;12.75;;;11.23;;
44606;SDS011;30315;46.072;14.474;2022-12-07T15:18:16;15.82;;;11.73;;
44606;SDS011;30315;46.072;14.474;2022-12-07T15:20:43;15.23;;;12.00;;
44606;SDS011;30315;46.072;14.474;2022-12-07T15:23:11;13.27;;;11.68;;
44606;SDS011;30315;46.072;14.474;2022-12-07T15:25:42;13.38;;;12.07;;
44606;SDS011;30315;46.072;14.474;2022-12-07T15:28:10;13.23;;;11.93;;
44606;SDS011;30315;46.072;14.474;2022-12-07T15:30:38;13.77;;;11.88;;
44606;SDS011;30315;46.072;14.474;2022-12-07T15:33:05;15.00;;;12.35;;
44606;SDS011;30315;46.072;14.474;2022-12-07T15:35:32;13.10;;;11.68;;
44606;SDS011;30315;46.072;14.474;2022-12-07T15:38:00;14.60;;;11.75;;
44606;SDS011;30315;46.072;14.474;2022-12-07T15:40:28;16.95;;;12.20;;
44606;SDS011;30315;46.072;14.474;2022-12-07T15:42:55;14.27;;;12.13;;
44606;SDS011;30315;46.072;14.474;2022-12-07T15:45:23;14.85;;;12.65;;
44606;SDS011;30315;46.072;14.474;2022-12-07T15:47:50;14.57;;;12.90;;
44606;SDS011;30315;46.072;14.474;2022-12-07T15:50:36;15.50;;;11.90;;
44606;SDS011;30315;46.072;14.474;2022-12-07T15:53:03;13.50;;;12.05;;
44606;SDS011;30315;46.072;14.474;2022-12-07T15:55:34;14.43;;;11.95;;
44606;SDS011;30315;46.072;14.474;2022-12-07T15:58:01;21.25;;;12.30;;
44606;SDS011;30315;46.072;14.474;2022-12-07T16:00:31;13.45;;;11.55;;
44606;SDS011;30315;46.072;14.474;2022-12-07T16:02:58;13.82;;;12.43;;
44606;SDS011;30315;46.072;14.474;2022-12-07T16:05:26;13.07;;;11.73;;
44606;SDS011;30315;46.072;14.474;2022-12-07T16:07:53;14.18;;;11.27;;
44606;SDS011;30315;46.072;14.474;2022-12-07T16:10:20;15.23;;;13.40;;
44606;SDS011;30315;46.072;14.474;2022-12-07T16:12:52;18.38;;;13.48;;
44606;SDS011;30315;46.072;14.474;2022-12-07T16:15:20;16.15;;;13.57;;
44606;SDS011;30315;46.072;14.474;2022-12-07T16:20:17;13.60;;;11.35;;
44606;SDS011;30315;46.072;14.474;2022-12-07T16:22:44;14.68;;;12.60;;
44606;SDS011;30315;46.072;14.474;2022-12-07T16:25:11;13.68;;;12.27;;
44606;SDS011;30315;46.072;14.474;2022-12-07T16:27:38;14.07;;;12.60;;
44606;SDS011;30315;46.072;14.474;2022-12-07T16:30:06;13.35;;;11.95;;
44606;SDS011;30315;46.072;14.474;2022-12-07T16:32:34;14.95;;;12.60;;
44606;SDS011;30315;46.072;14.474;2022-12-07T16:35:01;13.52;;;12.15;;
44606;SDS011;30315;46.072;14.474;2022-12-07T16:37:28;13.75;;;12.35;;
44606;SDS011;30315;46.072;14.474;2022-12-07T16:39:55;14.27;;;12.20;;
44606;SDS011;30315;46.072;14.474;2022-12-07T16:42:22;15.02;;;13.43;;
44606;SDS011;30315;46.072;14.474;2022-12-07T16:44:49;15.57;;;12.82;;
44606;SDS011;30315;46.072;14.474;2022-12-07T16:47:16;13.80;;;11.48;;
44606;SDS011;30315;46.072;14.474;2022-12-07T16:49:43;14.05;;;12.18;;
44606;SDS011;30315;46.072;14.474;2022-12-07T16:52:10;15.60;;;13.32;;
44606;SDS011;30315;46.072;14.474;2022-12-07T16:54:47;15.77;;;12.52;;
44606;SDS011;30315;46.072;14.474;2022-12-07T16:57:16;14.48;;;12.73;;
44606;SDS011;30315;46.072;14.474;2022-12-07T16:59:48;18.30;;;11.85;;
44606;SDS011;30315;46.072;14.474;2022-12-07T17:02:15;16.83;;;13.45;;
44606;SDS011;30315;46.072;14.474;2022-12-07T17:04:42;14.60;;;12.75;;
44606;SDS011;30315;46.072;14.474;2022-12-07T17:07:09;18.10;;;13.82;;
44606;SDS011;30315;46.072;14.474;2022-12-07T17:09:37;16.73;;;13.23;;
44606;SDS011;30315;46.072;14.474;2022-12-07T17:12:04;16.90;;;14.10;;
44606;SDS011;30315;46.072;14.474;2022-12-07T17:14:33;14.85;;;12.93;;
44606;SDS011;30315;46.072;14.474;2022-12-07T17:17:18;16.85;;;14.25;;
44606;SDS011;30315;46.072;14.474;2022-12-07T17:19:46;13.63;;;12.23;;
44606;SDS011;30315;46.072;14.474;2022-12-07T17:22:12;15.65;;;13.75;;
44606;SDS011;30315;46.072;14.474;2022-12-07T17:24:39;16.85;;;13.18;;
44606;SDS011;30315;46.072;14.474;2022-12-07T17:27:06;14.65;;;13.02;;
44606;SDS011;30315;46.072;14.474;2022-12-07T17:29:34;17.48;;;14.15;;
44606;SDS011;30315;46.072;14.474;2022-12-07T17:32:01;17.70;;;14.68;;